Bad River Indian Reservation, Wisconsin
Current Conditions -  °F | °C
As of 12:53 AM on Saturday 25 Oct 2014 (Local Time) from KASX Reporting Station
Clear Clear  
Wind Chill: 54°   Ceiling: Unl
Heat Index: 54°   Visibility: 10mi
Dew Point: 48°   Wind: 9mph
Humidity: 80%   Direction: 240°WSW
Pressure: 29.78"   Gusts: NA
Location:  46.543°N, 90.8706°W
Report Text: KASX 250553Z AUTO 24008KT 10SM CLR 12/09 A2978 RMK AO2 SLP084 T01220089 10139 20122 402110056 53005
Loading
Personal Weather Stations






























Interactive Weather Map
Tropical Storm Tracking
New forecast layout! Learn more

10-Day Weather Forecast

Advertisements
Track Severe Weather on mobile